Los Angeles, California
Current Conditions -  °F | °C
As of 3:47 PM on Friday 24 Oct 2014 (Local Time) from KCQT Reporting Station
Clear Clear  
Wind Chill: 84°   Ceiling: Unl
Heat Index: 84°   Visibility: 10mi
Dew Point: 55°   Wind: 0mph
Humidity: 37%   Direction: NA
Pressure: 29.92"   Gusts: NA
Location:  34.05°N, 118.24°W
Report Text: KCQT 242247Z AUTO 00000KT 10SM CLR 29/13 A2992 RMK AO2 SLP129 T02890128
Loading
Personal Weather Stations






























Interactive Weather Map New forecast layout! Learn more

10-Day Weather Forecast

Advertisements
Track Severe Weather on mobile